sensor_id;sensor_type;location;lat;lon;timestamp;P1;durP1;ratioP1;P2;durP2;ratioP2
5878;SDS011;2965;42.640;23.370;2023-12-20T04:02:21;28.23;;;14.83;;
5878;SDS011;2965;42.640;23.370;2023-12-20T04:04:46;28.57;;;16.33;;
5878;SDS011;2965;42.640;23.370;2023-12-20T04:07:11;30.40;;;14.37;;
5878;SDS011;2965;42.640;23.370;2023-12-20T04:09:37;34.10;;;17.07;;
5878;SDS011;2965;42.640;23.370;2023-12-20T04:12:02;32.83;;;16.37;;
5878;SDS011;2965;42.640;23.370;2023-12-20T04:14:28;27.70;;;15.50;;
5878;SDS011;2965;42.640;23.370;2023-12-20T04:16:54;25.13;;;14.50;;
5878;SDS011;2965;42.640;23.370;2023-12-20T04:19:19;28.97;;;15.20;;
5878;SDS011;2965;42.640;23.370;2023-12-20T04:21:44;30.00;;;14.90;;
5878;SDS011;2965;42.640;23.370;2023-12-20T04:24:10;27.00;;;13.60;;
5878;SDS011;2965;42.640;23.370;2023-12-20T04:26:35;22.80;;;13.40;;
5878;SDS011;2965;42.640;23.370;2023-12-20T04:29:01;30.93;;;16.27;;
5878;SDS011;2965;42.640;23.370;2023-12-20T04:31:26;34.40;;;16.97;;
5878;SDS011;2965;42.640;23.370;2023-12-20T04:33:52;32.03;;;17.80;;
5878;SDS011;2965;42.640;23.370;2023-12-20T04:36:17;37.37;;;17.60;;
5878;SDS011;2965;42.640;23.370;2023-12-20T04:38:43;29.60;;;14.67;;
5878;SDS011;2965;42.640;23.370;2023-12-20T04:41:08;29.93;;;15.60;;
5878;SDS011;2965;42.640;23.370;2023-12-20T04:43:33;32.53;;;16.80;;
5878;SDS011;2965;42.640;23.370;2023-12-20T04:45:59;35.37;;;18.00;;
5878;SDS011;2965;42.640;23.370;2023-12-20T04:48:24;45.10;;;23.70;;
5878;SDS011;2965;42.640;23.370;2023-12-20T04:50:50;48.53;;;23.10;;
5878;SDS011;2965;42.640;23.370;2023-12-20T04:53:15;30.50;;;17.40;;
5878;SDS011;2965;42.640;23.370;2023-12-20T04:55:40;35.30;;;17.77;;
5878;SDS011;2965;42.640;23.370;2023-12-20T04:58:06;34.23;;;18.60;;
5878;SDS011;2965;42.640;23.370;2023-12-20T05:00:31;35.97;;;17.63;;
5878;SDS011;2965;42.640;23.370;2023-12-20T05:02:57;36.13;;;18.47;;
5878;SDS011;2965;42.640;23.370;2023-12-20T05:05:22;40.57;;;20.37;;
5878;SDS011;2965;42.640;23.370;2023-12-20T05:07:47;35.87;;;19.57;;
5878;SDS011;2965;42.640;23.370;2023-12-20T05:10:13;42.80;;;20.10;;
5878;SDS011;2965;42.640;23.370;2023-12-20T05:12:38;36.70;;;18.40;;
5878;SDS011;2965;42.640;23.370;2023-12-20T05:15:05;37.33;;;19.13;;
5878;SDS011;2965;42.640;23.370;2023-12-20T05:17:32;51.00;;;22.17;;
5878;SDS011;2965;42.640;23.370;2023-12-20T05:19:58;31.13;;;17.77;;
5878;SDS011;2965;42.640;23.370;2023-12-20T05:22:23;34.87;;;18.67;;
5878;SDS011;2965;42.640;23.370;2023-12-20T05:24:49;45.70;;;21.03;;
5878;SDS011;2965;42.640;23.370;2023-12-20T05:27:14;40.97;;;19.10;;
5878;SDS011;2965;42.640;23.370;2023-12-20T05:29:40;52.07;;;23.33;;
5878;SDS011;2965;42.640;23.370;2023-12-20T05:32:05;45.70;;;20.57;;
5878;SDS011;2965;42.640;23.370;2023-12-20T05:34:31;46.43;;;21.97;;
5878;SDS011;2965;42.640;23.370;2023-12-20T05:36:57;51.03;;;22.30;;
5878;SDS011;2965;42.640;23.370;2023-12-20T05:39:23;38.87;;;19.60;;
5878;SDS011;2965;42.640;23.370;2023-12-20T05:41:49;57.40;;;24.20;;
5878;SDS011;2965;42.640;23.370;2023-12-20T05:44:14;48.20;;;20.43;;
5878;SDS011;2965;42.640;23.370;2023-12-20T05:46:39;38.50;;;20.70;;
5878;SDS011;2965;42.640;23.370;2023-12-20T05:49:05;45.37;;;22.37;;
5878;SDS011;2965;42.640;23.370;2023-12-20T06:22:26;76.57;;;32.07;;
5878;SDS011;2965;42.640;23.370;2023-12-20T06:24:51;74.87;;;30.57;;
5878;SDS011;2965;42.640;23.370;2023-12-20T06:27:17;130.13;;;39.90;;
5878;SDS011;2965;42.640;23.370;2023-12-20T06:29:42;87.03;;;35.60;;
5878;SDS011;2965;42.640;23.370;2023-12-20T06:32:10;105.77;;;42.90;;
5878;SDS011;2965;42.640;23.370;2023-12-20T06:34:35;110.17;;;43.33;;
5878;SDS011;2965;42.640;23.370;2023-12-20T07:40:36;142.00;;;55.83;;
5878;SDS011;2965;42.640;23.370;2023-12-20T07:43:02;126.87;;;55.43;;
5878;SDS011;2965;42.640;23.370;2023-12-20T07:45:27;135.23;;;58.80;;
5878;SDS011;2965;42.640;23.370;2023-12-20T07:47:53;115.77;;;54.60;;
5878;SDS011;2965;42.640;23.370;2023-12-20T07:50:18;145.13;;;61.33;;
5878;SDS011;2965;42.640;23.370;2023-12-20T07:52:44;134.80;;;56.90;;
5878;SDS011;2965;42.640;23.370;2023-12-20T07:55:09;133.97;;;59.30;;
5878;SDS011;2965;42.640;23.370;2023-12-20T07:57:34;115.57;;;54.60;;
5878;SDS011;2965;42.640;23.370;2023-12-20T08:00:00;112.57;;;50.57;;
5878;SDS011;2965;42.640;23.370;2023-12-20T08:02:25;118.33;;;56.07;;
5878;SDS011;2965;42.640;23.370;2023-12-20T08:04:51;120.13;;;56.50;;
5878;SDS011;2965;42.640;23.370;2023-12-20T08:07:16;131.53;;;57.87;;
5878;SDS011;2965;42.640;23.370;2023-12-20T08:09:42;113.27;;;55.43;;
5878;SDS011;2965;42.640;23.370;2023-12-20T08:12:08;116.77;;;55.60;;
5878;SDS011;2965;42.640;23.370;2023-12-20T08:14:34;114.90;;;51.43;;
5878;SDS011;2965;42.640;23.370;2023-12-20T08:17:00;106.90;;;51.63;;
5878;SDS011;2965;42.640;23.370;2023-12-20T08:19:25;102.30;;;42.93;;
5878;SDS011;2965;42.640;23.370;2023-12-20T08:21:51;107.13;;;50.40;;
5878;SDS011;2965;42.640;23.370;2023-12-20T08:24:16;110.90;;;50.27;;
5878;SDS011;2965;42.640;23.370;2023-12-20T08:26:41;113.53;;;47.20;;
5878;SDS011;2965;42.640;23.370;2023-12-20T08:29:07;113.07;;;44.73;;
5878;SDS011;2965;42.640;23.370;2023-12-20T08:31:32;85.30;;;38.63;;
5878;SDS011;2965;42.640;23.370;2023-12-20T08:33:58;99.63;;;45.23;;
5878;SDS011;2965;42.640;23.370;2023-12-20T08:36:23;111.53;;;55.83;;
5878;SDS011;2965;42.640;23.370;2023-12-20T08:38:49;113.63;;;50.87;;
5878;SDS011;2965;42.640;23.370;2023-12-20T08:41:16;119.07;;;45.80;;
5878;SDS011;2965;42.640;23.370;2023-12-20T08:43:42;109.27;;;43.73;;
5878;SDS011;2965;42.640;23.370;2023-12-20T08:46:08;95.37;;;41.37;;
5878;SDS011;2965;42.640;23.370;2023-12-20T08:48:34;113.90;;;41.73;;
5878;SDS011;2965;42.640;23.370;2023-12-20T08:51:00;91.97;;;41.47;;
5878;SDS011;2965;42.640;23.370;2023-12-20T08:53:26;93.80;;;42.23;;
5878;SDS011;2965;42.640;23.370;2023-12-20T08:55:52;93.33;;;40.83;;
5878;SDS011;2965;42.640;23.370;2023-12-20T08:58:17;86.07;;;39.47;;
5878;SDS011;2965;42.640;23.370;2023-12-20T09:49:51;94.97;;;38.87;;
5878;SDS011;2965;42.640;23.370;2023-12-20T09:52:17;111.63;;;43.43;;
5878;SDS011;2965;42.640;23.370;2023-12-20T09:54:43;99.60;;;43.93;;
5878;SDS011;2965;42.640;23.370;2023-12-20T09:57:09;101.23;;;44.60;;
5878;SDS011;2965;42.640;23.370;2023-12-20T09:59:35;106.10;;;45.67;;
5878;SDS011;2965;42.640;23.370;2023-12-20T10:02:00;102.37;;;43.47;;
5878;SDS011;2965;42.640;23.370;2023-12-20T10:04:28;102.70;;;44.57;;
5878;SDS011;2965;42.640;23.370;2023-12-20T10:07:01;88.27;;;42.20;;
5878;SDS011;2965;42.640;23.370;2023-12-20T10:09:29;92.23;;;44.00;;
5878;SDS011;2965;42.640;23.370;2023-12-20T10:11:57;100.13;;;42.87;;
5878;SDS011;2965;42.640;23.370;2023-12-20T10:14:23;104.20;;;44.63;;
5878;SDS011;2965;42.640;23.370;2023-12-20T10:16:48;114.30;;;47.40;;
5878;SDS011;2965;42.640;23.370;2023-12-20T10:19:16;122.70;;;48.70;;
5878;SDS011;2965;42.640;23.370;2023-12-20T10:21:42;108.60;;;44.20;;
5878;SDS011;2965;42.640;23.370;2023-12-20T10:24:08;113.40;;;45.80;;
5878;SDS011;2965;42.640;23.370;2023-12-20T10:26:33;117.47;;;47.63;;
5878;SDS011;2965;42.640;23.370;2023-12-20T10:29:02;116.30;;;49.77;;
5878;SDS011;2965;42.640;23.370;2023-12-20T10:31:31;105.57;;;47.80;;
5878;SDS011;2965;42.640;23.370;2023-12-20T10:33:58;113.07;;;48.17;;
5878;SDS011;2965;42.640;23.370;2023-12-20T10:36:25;110.73;;;46.37;;
5878;SDS011;2965;42.640;23.370;2023-12-20T10:38:52;109.30;;;46.50;;
5878;SDS011;2965;42.640;23.370;2023-12-20T10:41:21;101.60;;;44.00;;
5878;SDS011;2965;42.640;23.370;2023-12-20T10:43:51;94.33;;;43.53;;
5878;SDS011;2965;42.640;23.370;2023-12-20T10:46:18;91.07;;;44.17;;
5878;SDS011;2965;42.640;23.370;2023-12-20T10:48:44;122.43;;;48.90;;
5878;SDS011;2965;42.640;23.370;2023-12-20T10:51:11;101.37;;;45.63;;
5878;SDS011;2965;42.640;23.370;2023-12-20T10:53:41;105.23;;;46.47;;
5878;SDS011;2965;42.640;23.370;2023-12-20T10:56:08;129.43;;;50.60;;
5878;SDS011;2965;42.640;23.370;2023-12-20T10:58:37;102.93;;;47.83;;
5878;SDS011;2965;42.640;23.370;2023-12-20T11:01:08;99.30;;;45.90;;
5878;SDS011;2965;42.640;23.370;2023-12-20T11:03:34;97.33;;;45.70;;
5878;SDS011;2965;42.640;23.370;2023-12-20T11:06:19;89.83;;;44.53;;
5878;SDS011;2965;42.640;23.370;2023-12-20T11:17:29;86.50;;;40.70;;
5878;SDS011;2965;42.640;23.370;2023-12-20T11:22:22;83.57;;;43.00;;
5878;SDS011;2965;42.640;23.370;2023-12-20T11:24:51;91.90;;;44.47;;
5878;SDS011;2965;42.640;23.370;2023-12-20T11:27:18;103.83;;;44.80;;
5878;SDS011;2965;42.640;23.370;2023-12-20T11:29:58;94.90;;;44.93;;
5878;SDS011;2965;42.640;23.370;2023-12-20T11:34:50;94.10;;;45.80;;
5878;SDS011;2965;42.640;23.370;2023-12-20T11:37:19;94.17;;;45.90;;
5878;SDS011;2965;42.640;23.370;2023-12-20T11:39:45;103.77;;;50.23;;
5878;SDS011;2965;42.640;23.370;2023-12-20T11:42:19;107.07;;;50.90;;
5878;SDS011;2965;42.640;23.370;2023-12-20T11:44:45;106.43;;;49.80;;
5878;SDS011;2965;42.640;23.370;2023-12-20T11:47:11;97.00;;;48.07;;
5878;SDS011;2965;42.640;23.370;2023-12-20T11:49:38;94.50;;;46.97;;
5878;SDS011;2965;42.640;23.370;2023-12-20T11:52:05;93.20;;;45.80;;
5878;SDS011;2965;42.640;23.370;2023-12-20T11:54:30;100.73;;;47.93;;
5878;SDS011;2965;42.640;23.370;2023-12-20T11:56:56;95.80;;;47.53;;
5878;SDS011;2965;42.640;23.370;2023-12-20T11:59:21;97.63;;;49.90;;
5878;SDS011;2965;42.640;23.370;2023-12-20T12:01:47;100.23;;;44.97;;
5878;SDS011;2965;42.640;23.370;2023-12-20T12:04:14;95.47;;;46.97;;
5878;SDS011;2965;42.640;23.370;2023-12-20T12:06:40;90.30;;;44.90;;
5878;SDS011;2965;42.640;23.370;2023-12-20T12:09:06;86.57;;;42.73;;
5878;SDS011;2965;42.640;23.370;2023-12-20T12:11:31;99.03;;;44.23;;
5878;SDS011;2965;42.640;23.370;2023-12-20T12:34:38;99.47;;;46.57;;
5878;SDS011;2965;42.640;23.370;2023-12-20T12:37:04;85.90;;;44.80;;
5878;SDS011;2965;42.640;23.370;2023-12-20T12:39:30;83.80;;;44.50;;
5878;SDS011;2965;42.640;23.370;2023-12-20T12:41:57;79.17;;;41.40;;
5878;SDS011;2965;42.640;23.370;2023-12-20T12:44:22;85.37;;;42.73;;
5878;SDS011;2965;42.640;23.370;2023-12-20T12:46:51;82.20;;;40.70;;
5878;SDS011;2965;42.640;23.370;2023-12-20T12:49:18;73.07;;;38.57;;
5878;SDS011;2965;42.640;23.370;2023-12-20T12:51:44;74.37;;;38.50;;
5878;SDS011;2965;42.640;23.370;2023-12-20T12:54:09;63.33;;;34.90;;
5878;SDS011;2965;42.640;23.370;2023-12-20T12:56:38;63.80;;;35.83;;
5878;SDS011;2965;42.640;23.370;2023-12-20T12:59:04;78.63;;;37.67;;
5878;SDS011;2965;42.640;23.370;2023-12-20T13:01:30;72.33;;;37.20;;
5878;SDS011;2965;42.640;23.370;2023-12-20T13:03:56;66.07;;;36.07;;
5878;SDS011;2965;42.640;23.370;2023-12-20T13:08:51;73.63;;;38.53;;
5878;SDS011;2965;42.640;23.370;2023-12-20T13:11:16;74.93;;;39.63;;
5878;SDS011;2965;42.640;23.370;2023-12-20T13:13:42;76.70;;;38.80;;
5878;SDS011;2965;42.640;23.370;2023-12-20T13:16:07;94.83;;;41.60;;
5878;SDS011;2965;42.640;23.370;2023-12-20T13:18:33;79.37;;;41.40;;
5878;SDS011;2965;42.640;23.370;2023-12-20T13:20:58;82.70;;;42.37;;
5878;SDS011;2965;42.640;23.370;2023-12-20T14:12:32;105.87;;;46.90;;
5878;SDS011;2965;42.640;23.370;2023-12-20T14:15:01;108.60;;;47.40;;
5878;SDS011;2965;42.640;23.370;2023-12-20T14:17:26;123.37;;;50.30;;
5878;SDS011;2965;42.640;23.370;2023-12-20T14:19:52;118.83;;;49.90;;
5878;SDS011;2965;42.640;23.370;2023-12-20T14:22:19;129.20;;;54.13;;
5878;SDS011;2965;42.640;23.370;2023-12-20T14:24:45;138.07;;;50.97;;
5878;SDS011;2965;42.640;23.370;2023-12-20T14:27:11;116.67;;;50.30;;
5878;SDS011;2965;42.640;23.370;2023-12-20T14:29:36;137.37;;;51.97;;
5878;SDS011;2965;42.640;23.370;2023-12-20T14:32:02;126.17;;;52.17;;
5878;SDS011;2965;42.640;23.370;2023-12-20T14:34:29;126.30;;;51.57;;
5878;SDS011;2965;42.640;23.370;2023-12-20T14:36:55;129.97;;;51.60;;
5878;SDS011;2965;42.640;23.370;2023-12-20T14:39:20;133.07;;;50.93;;
5878;SDS011;2965;42.640;23.370;2023-12-20T14:41:46;137.23;;;53.50;;
5878;SDS011;2965;42.640;23.370;2023-12-20T14:44:11;140.70;;;51.80;;
5878;SDS011;2965;42.640;23.370;2023-12-20T14:46:37;132.10;;;51.70;;
5878;SDS011;2965;42.640;23.370;2023-12-20T14:49:03;141.63;;;53.07;;
5878;SDS011;2965;42.640;23.370;2023-12-20T14:51:29;131.00;;;49.03;;
5878;SDS011;2965;42.640;23.370;2023-12-20T14:53:55;116.30;;;50.00;;
5878;SDS011;2965;42.640;23.370;2023-12-20T14:56:20;135.83;;;51.50;;
5878;SDS011;2965;42.640;23.370;2023-12-20T14:58:47;126.13;;;49.00;;
5878;SDS011;2965;42.640;23.370;2023-12-20T15:01:13;124.37;;;51.47;;
5878;SDS011;2965;42.640;23.370;2023-12-20T15:03:39;136.73;;;52.70;;
5878;SDS011;2965;42.640;23.370;2023-12-20T15:06:05;127.40;;;54.50;;
5878;SDS011;2965;42.640;23.370;2023-12-20T15:08:31;125.17;;;50.60;;
5878;SDS011;2965;42.640;23.370;2023-12-20T15:10:57;124.33;;;49.23;;
5878;SDS011;2965;42.640;23.370;2023-12-20T15:13:22;114.97;;;48.40;;
5878;SDS011;2965;42.640;23.370;2023-12-20T15:15:47;130.10;;;48.50;;
5878;SDS011;2965;42.640;23.370;2023-12-20T15:18:13;131.13;;;51.40;;
5878;SDS011;2965;42.640;23.370;2023-12-20T15:20:38;130.03;;;49.63;;
5878;SDS011;2965;42.640;23.370;2023-12-20T15:23:04;157.20;;;55.17;;
5878;SDS011;2965;42.640;23.370;2023-12-20T15:25:31;130.50;;;50.70;;
5878;SDS011;2965;42.640;23.370;2023-12-20T15:27:57;143.17;;;51.97;;
5878;SDS011;2965;42.640;23.370;2023-12-20T15:30:22;129.80;;;51.37;;
5878;SDS011;2965;42.640;23.370;2023-12-20T15:32:52;140.13;;;51.23;;
5878;SDS011;2965;42.640;23.370;2023-12-20T15:35:18;148.47;;;51.43;;
5878;SDS011;2965;42.640;23.370;2023-12-20T15:37:43;132.90;;;50.47;;
5878;SDS011;2965;42.640;23.370;2023-12-20T15:40:09;135.80;;;54.17;;
5878;SDS011;2965;42.640;23.370;2023-12-20T15:42:39;135.80;;;50.50;;
5878;SDS011;2965;42.640;23.370;2023-12-20T15:45:05;136.93;;;52.00;;
5878;SDS011;2965;42.640;23.370;2023-12-20T15:47:32;162.97;;;54.97;;
5878;SDS011;2965;42.640;23.370;2023-12-20T15:50:01;145.33;;;54.67;;
5878;SDS011;2965;42.640;23.370;2023-12-20T15:52:26;155.73;;;56.70;;
5878;SDS011;2965;42.640;23.370;2023-12-20T15:54:51;133.80;;;53.97;;
5878;SDS011;2965;42.640;23.370;2023-12-20T15:57:17;155.13;;;52.87;;
5878;SDS011;2965;42.640;23.370;2023-12-20T15:59:42;148.77;;;54.60;;
5878;SDS011;2965;42.640;23.370;2023-12-20T16:02:08;136.90;;;53.53;;
5878;SDS011;2965;42.640;23.370;2023-12-20T16:04:33;125.00;;;50.20;;
5878;SDS011;2965;42.640;23.370;2023-12-20T16:38:01;150.60;;;57.40;;
5878;SDS011;2965;42.640;23.370;2023-12-20T16:40:26;150.07;;;57.47;;
5878;SDS011;2965;42.640;23.370;2023-12-20T16:42:52;155.57;;;58.40;;
5878;SDS011;2965;42.640;23.370;2023-12-20T16:45:20;154.13;;;58.00;;
5878;SDS011;2965;42.640;23.370;2023-12-20T16:47:46;164.33;;;61.70;;
5878;SDS011;2965;42.640;23.370;2023-12-20T16:50:11;153.70;;;61.13;;
5878;SDS011;2965;42.640;23.370;2023-12-20T16:52:37;153.60;;;60.10;;
5878;SDS011;2965;42.640;23.370;2023-12-20T16:55:04;187.43;;;65.23;;
5878;SDS011;2965;42.640;23.370;2023-12-20T16:57:30;141.07;;;51.13;;
5878;SDS011;2965;42.640;23.370;2023-12-20T16:59:57;130.43;;;51.50;;
5878;SDS011;2965;42.640;23.370;2023-12-20T17:02:22;154.50;;;56.43;;
5878;SDS011;2965;42.640;23.370;2023-12-20T17:04:48;142.40;;;55.00;;
5878;SDS011;2965;42.640;23.370;2023-12-20T17:07:14;151.73;;;57.03;;
5878;SDS011;2965;42.640;23.370;2023-12-20T17:09:39;175.37;;;61.20;;
5878;SDS011;2965;42.640;23.370;2023-12-20T17:12:05;144.03;;;53.57;;
5878;SDS011;2965;42.640;23.370;2023-12-20T17:14:32;131.03;;;53.23;;
5878;SDS011;2965;42.640;23.370;2023-12-20T17:16:58;142.87;;;55.17;;
5878;SDS011;2965;42.640;23.370;2023-12-20T17:19:24;155.87;;;57.20;;
5878;SDS011;2965;42.640;23.370;2023-12-20T17:21:49;141.23;;;54.50;;
5878;SDS011;2965;42.640;23.370;2023-12-20T17:24:17;158.83;;;62.33;;
5878;SDS011;2965;42.640;23.370;2023-12-20T17:26:42;133.67;;;55.20;;
5878;SDS011;2965;42.640;23.370;2023-12-20T17:29:08;149.10;;;59.30;;
5878;SDS011;2965;42.640;23.370;2023-12-20T17:31:33;149.67;;;54.00;;
5878;SDS011;2965;42.640;23.370;2023-12-20T17:34:00;161.43;;;63.23;;
5878;SDS011;2965;42.640;23.370;2023-12-20T17:36:25;159.10;;;63.40;;
5878;SDS011;2965;42.640;23.370;2023-12-20T17:38:51;144.33;;;56.90;;
5878;SDS011;2965;42.640;23.370;2023-12-20T17:41:16;160.17;;;61.00;;
5878;SDS011;2965;42.640;23.370;2023-12-20T17:43:42;136.30;;;53.00;;
5878;SDS011;2965;42.640;23.370;2023-12-20T17:46:08;129.27;;;49.30;;
5878;SDS011;2965;42.640;23.370;2023-12-20T17:48:34;151.00;;;51.93;;
5878;SDS011;2965;42.640;23.370;2023-12-20T17:51:00;145.53;;;58.33;;
5878;SDS011;2965;42.640;23.370;2023-12-20T17:53:25;164.63;;;62.53;;
5878;SDS011;2965;42.640;23.370;2023-12-20T17:55:50;177.93;;;64.53;;
5878;SDS011;2965;42.640;23.370;2023-12-20T17:58:16;159.40;;;64.60;;
5878;SDS011;2965;42.640;23.370;2023-12-20T18:00:41;184.13;;;66.20;;
5878;SDS011;2965;42.640;23.370;2023-12-20T18:03:07;156.83;;;62.53;;
5878;SDS011;2965;42.640;23.370;2023-12-20T18:05:32;133.17;;;51.13;;
5878;SDS011;2965;42.640;23.370;2023-12-20T18:07:58;140.33;;;53.10;;
5878;SDS011;2965;42.640;23.370;2023-12-20T18:10:23;159.13;;;55.97;;
5878;SDS011;2965;42.640;23.370;2023-12-20T18:12:49;195.37;;;55.80;;
5878;SDS011;2965;42.640;23.370;2023-12-20T18:15:14;169.17;;;57.90;;
5878;SDS011;2965;42.640;23.370;2023-12-20T18:17:40;161.03;;;58.37;;
5878;SDS011;2965;42.640;23.370;2023-12-20T18:20:06;291.93;;;65.93;;
5878;SDS011;2965;42.640;23.370;2023-12-20T18:22:33;167.40;;;60.90;;
5878;SDS011;2965;42.640;23.370;2023-12-20T18:24:59;297.10;;;66.73;;
5878;SDS011;2965;42.640;23.370;2023-12-20T18:27:25;210.50;;;63.27;;
5878;SDS011;2965;42.640;23.370;2023-12-20T18:29:52;198.60;;;61.33;;
5878;SDS011;2965;42.640;23.370;2023-12-20T18:32:18;178.03;;;57.83;;
5878;SDS011;2965;42.640;23.370;2023-12-20T18:34:44;209.40;;;67.17;;
5878;SDS011;2965;42.640;23.370;2023-12-20T18:37:10;191.87;;;63.00;;
5878;SDS011;2965;42.640;23.370;2023-12-20T18:39:39;160.60;;;57.83;;
5878;SDS011;2965;42.640;23.370;2023-12-20T18:42:07;159.73;;;57.27;;
5878;SDS011;2965;42.640;23.370;2023-12-20T18:44:33;156.60;;;59.57;;
5878;SDS011;2965;42.640;23.370;2023-12-20T18:46:59;175.80;;;62.27;;
5878;SDS011;2965;42.640;23.370;2023-12-20T18:49:24;182.43;;;61.57;;
5878;SDS011;2965;42.640;23.370;2023-12-20T18:51:50;169.47;;;61.73;;
5878;SDS011;2965;42.640;23.370;2023-12-20T18:54:15;208.30;;;65.50;;
5878;SDS011;2965;42.640;23.370;2023-12-20T18:56:42;169.83;;;62.67;;
5878;SDS011;2965;42.640;23.370;2023-12-20T18:59:08;192.57;;;64.50;;
5878;SDS011;2965;42.640;23.370;2023-12-20T19:01:34;177.77;;;64.40;;
5878;SDS011;2965;42.640;23.370;2023-12-20T19:03:59;174.63;;;63.67;;
5878;SDS011;2965;42.640;23.370;2023-12-20T19:06:25;184.43;;;66.70;;
5878;SDS011;2965;42.640;23.370;2023-12-20T19:08:50;197.27;;;64.63;;
5878;SDS011;2965;42.640;23.370;2023-12-20T19:11:17;160.70;;;60.17;;
5878;SDS011;2965;42.640;23.370;2023-12-20T19:13:44;153.90;;;59.87;;
5878;SDS011;2965;42.640;23.370;2023-12-20T19:16:09;179.37;;;60.47;;
5878;SDS011;2965;42.640;23.370;2023-12-20T19:18:35;169.13;;;62.50;;
5878;SDS011;2965;42.640;23.370;2023-12-20T19:21:00;168.37;;;58.93;;
5878;SDS011;2965;42.640;23.370;2023-12-20T19:23:28;155.43;;;59.80;;
5878;SDS011;2965;42.640;23.370;2023-12-20T19:25:53;155.70;;;59.53;;
5878;SDS011;2965;42.640;23.370;2023-12-20T19:28:19;162.57;;;68.50;;
5878;SDS011;2965;42.640;23.370;2023-12-20T19:30:45;153.47;;;58.30;;
5878;SDS011;2965;42.640;23.370;2023-12-20T19:33:10;148.67;;;58.77;;
5878;SDS011;2965;42.640;23.370;2023-12-20T19:35:36;143.17;;;56.40;;
5878;SDS011;2965;42.640;23.370;2023-12-20T19:38:01;149.33;;;57.77;;
5878;SDS011;2965;42.640;23.370;2023-12-20T19:40:27;139.23;;;54.87;;
5878;SDS011;2965;42.640;23.370;2023-12-20T19:42:52;152.70;;;58.93;;
5878;SDS011;2965;42.640;23.370;2023-12-20T19:45:18;138.80;;;57.20;;
5878;SDS011;2965;42.640;23.370;2023-12-20T19:47:50;146.10;;;57.63;;
5878;SDS011;2965;42.640;23.370;2023-12-20T19:50:16;144.00;;;54.47;;
5878;SDS011;2965;42.640;23.370;2023-12-20T19:52:42;151.27;;;58.60;;
5878;SDS011;2965;42.640;23.370;2023-12-20T19:55:14;181.20;;;63.97;;
5878;SDS011;2965;42.640;23.370;2023-12-20T19:57:46;163.23;;;61.30;;
5878;SDS011;2965;42.640;23.370;2023-12-20T20:00:12;167.90;;;61.27;;
5878;SDS011;2965;42.640;23.370;2023-12-20T20:02:38;155.50;;;62.37;;
5878;SDS011;2965;42.640;23.370;2023-12-20T20:05:06;159.83;;;60.87;;
5878;SDS011;2965;42.640;23.370;2023-12-20T20:07:33;149.30;;;61.17;;
5878;SDS011;2965;42.640;23.370;2023-12-20T20:12:27;168.80;;;64.07;;
5878;SDS011;2965;42.640;23.370;2023-12-20T20:14:55;190.30;;;70.70;;
5878;SDS011;2965;42.640;23.370;2023-12-20T20:17:20;144.57;;;58.60;;
5878;SDS011;2965;42.640;23.370;2023-12-20T20:19:46;186.23;;;73.43;;
5878;SDS011;2965;42.640;23.370;2023-12-20T20:22:11;179.10;;;65.93;;
5878;SDS011;2965;42.640;23.370;2023-12-20T20:24:37;272.90;;;77.10;;
5878;SDS011;2965;42.640;23.370;2023-12-20T20:27:02;222.73;;;77.63;;
5878;SDS011;2965;42.640;23.370;2023-12-20T20:29:29;398.30;;;77.30;;
5878;SDS011;2965;42.640;23.370;2023-12-20T20:31:54;194.57;;;68.97;;
5878;SDS011;2965;42.640;23.370;2023-12-20T20:34:20;243.43;;;73.87;;
5878;SDS011;2965;42.640;23.370;2023-12-20T20:36:46;297.23;;;74.00;;
5878;SDS011;2965;42.640;23.370;2023-12-20T20:39:14;219.43;;;71.57;;
5878;SDS011;2965;42.640;23.370;2023-12-20T20:41:41;233.20;;;69.37;;
5878;SDS011;2965;42.640;23.370;2023-12-20T20:44:06;299.13;;;72.27;;
5878;SDS011;2965;42.640;23.370;2023-12-20T20:46:32;221.23;;;67.67;;
5878;SDS011;2965;42.640;23.370;2023-12-20T20:49:01;213.70;;;71.87;;
5878;SDS011;2965;42.640;23.370;2023-12-20T20:51:27;203.40;;;68.67;;
5878;SDS011;2965;42.640;23.370;2023-12-20T20:53:55;182.67;;;67.60;;
5878;SDS011;2965;42.640;23.370;2023-12-20T20:56:21;189.73;;;67.97;;
5878;SDS011;2965;42.640;23.370;2023-12-20T20:58:46;179.73;;;66.40;;
5878;SDS011;2965;42.640;23.370;2023-12-20T21:01:12;189.73;;;65.23;;
5878;SDS011;2965;42.640;23.370;2023-12-20T21:03:38;191.57;;;64.10;;
5878;SDS011;2965;42.640;23.370;2023-12-20T21:06:03;181.50;;;64.70;;
5878;SDS011;2965;42.640;23.370;2023-12-20T21:08:29;186.40;;;68.20;;
5878;SDS011;2965;42.640;23.370;2023-12-20T21:10:55;184.57;;;66.90;;
5878;SDS011;2965;42.640;23.370;2023-12-20T21:13:24;196.97;;;69.43;;
5878;SDS011;2965;42.640;23.370;2023-12-20T21:15:50;185.00;;;68.70;;
5878;SDS011;2965;42.640;23.370;2023-12-20T21:18:15;189.87;;;66.40;;
5878;SDS011;2965;42.640;23.370;2023-12-20T21:20:41;167.63;;;64.70;;
5878;SDS011;2965;42.640;23.370;2023-12-20T21:23:06;185.17;;;69.60;;
5878;SDS011;2965;42.640;23.370;2023-12-20T21:25:35;171.37;;;62.77;;
5878;SDS011;2965;42.640;23.370;2023-12-20T21:28:02;172.10;;;61.30;;
5878;SDS011;2965;42.640;23.370;2023-12-20T21:30:27;182.43;;;65.40;;
5878;SDS011;2965;42.640;23.370;2023-12-20T21:32:52;166.30;;;63.83;;
5878;SDS011;2965;42.640;23.370;2023-12-20T21:35:18;178.40;;;69.20;;
5878;SDS011;2965;42.640;23.370;2023-12-20T21:37:44;181.53;;;68.43;;
5878;SDS011;2965;42.640;23.370;2023-12-20T21:40:10;184.77;;;71.60;;
5878;SDS011;2965;42.640;23.370;2023-12-20T21:42:36;200.47;;;69.30;;
5878;SDS011;2965;42.640;23.370;2023-12-20T21:45:02;207.37;;;73.30;;
5878;SDS011;2965;42.640;23.370;2023-12-20T21:47:27;229.13;;;74.87;;
5878;SDS011;2965;42.640;23.370;2023-12-20T21:49:53;211.07;;;75.07;;
5878;SDS011;2965;42.640;23.370;2023-12-20T21:52:18;204.97;;;71.97;;
5878;SDS011;2965;42.640;23.370;2023-12-20T21:54:44;195.87;;;73.30;;
5878;SDS011;2965;42.640;23.370;2023-12-20T21:57:10;183.47;;;71.10;;
5878;SDS011;2965;42.640;23.370;2023-12-20T21:59:37;183.57;;;67.90;;
5878;SDS011;2965;42.640;23.370;2023-12-20T22:02:03;188.17;;;70.97;;
5878;SDS011;2965;42.640;23.370;2023-12-20T22:04:28;211.47;;;70.33;;
5878;SDS011;2965;42.640;23.370;2023-12-20T22:06:54;201.67;;;69.57;;
5878;SDS011;2965;42.640;23.370;2023-12-20T22:09:19;251.90;;;72.50;;
5878;SDS011;2965;42.640;23.370;2023-12-20T22:11:44;248.27;;;70.20;;
5878;SDS011;2965;42.640;23.370;2023-12-20T22:14:10;230.77;;;72.43;;
5878;SDS011;2965;42.640;23.370;2023-12-20T22:16:36;197.80;;;70.70;;
5878;SDS011;2965;42.640;23.370;2023-12-20T22:19:02;194.47;;;72.50;;
5878;SDS011;2965;42.640;23.370;2023-12-20T22:21:28;196.80;;;68.50;;
5878;SDS011;2965;42.640;23.370;2023-12-20T22:23:53;205.03;;;67.50;;
5878;SDS011;2965;42.640;23.370;2023-12-20T22:26:19;356.40;;;79.43;;
5878;SDS011;2965;42.640;23.370;2023-12-20T22:28:45;308.80;;;75.00;;
5878;SDS011;2965;42.640;23.370;2023-12-20T22:31:10;217.43;;;71.83;;
5878;SDS011;2965;42.640;23.370;2023-12-20T22:33:36;239.03;;;77.13;;
5878;SDS011;2965;42.640;23.370;2023-12-20T22:36:01;193.97;;;71.60;;
5878;SDS011;2965;42.640;23.370;2023-12-20T22:38:27;207.07;;;70.47;;
5878;SDS011;2965;42.640;23.370;2023-12-20T22:40:53;196.27;;;69.07;;
5878;SDS011;2965;42.640;23.370;2023-12-20T22:43:18;197.03;;;69.77;;